Terminal Aerodrome Forecast
Issued by NWS

Home | Current Version | Previous Version | Text Only | Print | Product List | Glossary On
Versions: 1 2 3 4 5 6 7 8 9 10 11 12
000
FTUS42 TJSJ 230540
TAFJPS
TAF
TJPS 230540Z 2306/2406 09008KT P6SM FEW030
     FM231400 14015KT P6SM FEW030
     FM232300 05005KT P6SM FEW060=

USA.gov is the U.S. government's official web portal to all federal, state and local government web resources and services.